Time;durP1;ratioP1;P1;durP2;ratioP2;P2;SDS_P1;SDS_P2;PMS_P1;PMS_P2;Temp;Humidity;BMP_temperature;BMP_pressure;BME280_temperature;BME280_humidity;BME280_pressure;Samples;Min_cycle;Max_cycle;Signal;HPM_P1;HPM_P2
2024/01/02 08:15:03;;;;;;;12.37;11.97;;;5.30;99.90;;;;;;5016761;28;20220;-85
2024/01/02 08:17:56;;;;;;;12.40;12.00;;;5.30;99.90;;;;;;5018407;28;20221;-85
2024/01/02 08:20:54;;;;;;;12.77;12.37;;;5.30;99.90;;;;;;5014919;28;20225;-84
2024/01/02 08:24:02;;;;;;;13.00;12.60;;;5.30;99.90;;;;;;5012557;28;20223;-84
2024/01/02 08:27:16;;;;;;;12.63;12.23;;;5.30;99.90;;;;;;4914846;29;20264;-85
2024/01/02 08:29:59;;;;;;;12.70;12.30;;;5.30;99.90;;;;;;4973236;28;20229;-85
2024/01/02 08:32:53;;;;;;;12.83;12.43;;;5.40;99.90;;;;;;4988456;28;20225;-83
2024/01/02 08:35:33;;;;;;;12.77;12.37;;;5.30;99.90;;;;;;4988381;28;20230;-84
2024/01/02 08:38:24;;;;;;;12.67;12.27;;;5.40;99.90;;;;;;4990002;28;20248;-84
2024/01/02 08:41:15;;;;;;;12.60;12.20;;;5.40;99.90;;;;;;5000996;28;20213;-84
2024/01/02 08:44:11;;;;;;;;;;;;;;;;;;;;;
2024/01/02 08:46:39;;;;;;;12.60;12.20;;;5.50;99.90;;;;;;5001291;28;20213;-82
2024/01/02 08:49:28;;;;;;;12.37;11.97;;;5.50;99.90;;;;;;5001784;28;20225;-84
2024/01/02 08:59:26;;;;;;;12.60;12.20;;;5.70;99.90;;;;;;4941820;28;20227;-85
2024/01/02 09:02:07;;;;;;;12.40;12.00;;;5.70;99.90;;;;;;4942528;29;20223;-80
2024/01/02 09:04:36;;;;;;;12.17;11.77;;;5.70;99.90;;;;;;4942684;29;20230;-80
2024/01/02 09:07:04;;;;;;;12.43;12.03;;;5.80;99.90;;;;;;4998520;28;20261;-80
2024/01/02 09:09:32;;;;;;;12.13;11.73;;;5.80;99.90;;;;;;5002121;28;20265;-82
2024/01/02 09:12:00;;;;;;;12.60;12.20;;;5.80;99.90;;;;;;5001790;28;20237;-81
2024/01/02 09:14:28;;;;;;;11.97;11.57;;;5.80;99.90;;;;;;5002128;28;20217;-80
2024/01/02 09:16:56;;;;;;;11.97;11.57;;;5.90;99.90;;;;;;5002089;28;20296;-81
2024/01/02 09:19:25;;;;;;;11.90;11.50;;;6.00;99.90;;;;;;5001945;28;20210;-82
2024/01/02 09:21:57;;;;;;;12.03;11.63;;;6.00;99.90;;;;;;5000939;28;20273;-81
2024/01/02 09:24:25;;;;;;;12.13;11.73;;;6.10;99.90;;;;;;5001623;28;20265;-82
2024/01/02 09:27:01;;;;;;;12.00;11.60;;;6.10;99.90;;;;;;4993432;28;20242;-82
2024/01/02 09:29:29;;;;;;;12.30;11.90;;;6.10;99.90;;;;;;4989799;28;20208;-83
2024/01/02 09:31:57;;;;;;;12.73;12.33;;;6.20;99.90;;;;;;4989616;28;20249;-83
2024/01/02 09:34:26;;;;;;;12.20;11.80;;;6.30;99.90;;;;;;4988839;28;20240;-83
2024/01/02 09:36:56;;;;;;;12.63;12.23;;;6.30;99.90;;;;;;4987098;28;20229;-84
2024/01/02 09:39:26;;;;;;;12.40;12.00;;;6.30;99.90;;;;;;4987753;28;20256;-84
2024/01/02 09:42:14;;;;;;;12.80;12.40;;;6.40;99.90;;;;;;4986618;28;20247;-81
2024/01/02 09:44:57;;;;;;;12.30;11.90;;;6.40;99.90;;;;;;4989457;28;20233;-82
2024/01/02 09:47:58;;;;;;;12.70;12.30;;;6.40;99.90;;;;;;4988876;28;20245;-86
2024/01/02 09:50:34;;;;;;;12.80;12.40;;;6.50;99.90;;;;;;4987039;28;20226;-84
2024/01/02 09:53:40;;;;;;;12.57;12.17;;;6.60;99.90;;;;;;4986434;28;20233;-83
2024/01/02 09:56:15;;;;;;;12.50;12.10;;;6.70;99.90;;;;;;4985945;28;20237;-84
2024/01/02 09:58:56;;;;;;;12.17;11.77;;;6.70;99.90;;;;;;4984950;28;20263;-84
2024/01/02 10:01:34;;;;;;;12.37;11.97;;;6.80;99.90;;;;;;4984971;28;20236;-85
2024/01/02 10:04:46;;;;;;;12.60;12.20;;;6.90;99.90;;;;;;4984581;28;20233;-84
2024/01/02 10:07:38;;;;;;;12.23;11.83;;;7.00;99.90;;;;;;4985858;28;20261;-84
2024/01/02 10:13:38;;;;;;;12.17;11.77;;;7.10;99.90;;;;;;4995489;28;20228;-89
2024/01/02 10:16:29;;;;;;;12.30;11.90;;;7.20;99.90;;;;;;4989524;28;20244;-88
2024/01/02 10:19:19;;;;;;;12.30;11.90;;;7.30;99.90;;;;;;5004853;28;20268;-87
2024/01/02 10:31:51;;;;;;;12.03;11.63;;;7.60;99.90;;;;;;4983813;28;20229;-85
2024/01/02 10:37:30;;;;;;;11.77;11.37;;;7.70;99.90;;;;;;4977342;28;20329;-83
2024/01/02 10:40:12;;;;;;;11.90;11.50;;;7.80;99.90;;;;;;4971901;28;20237;-84
2024/01/02 10:43:18;;;;;;;11.70;11.30;;;7.90;99.90;;;;;;4979852;28;20229;-82
2024/01/02 10:46:02;;;;;;;11.67;11.27;;;7.90;99.90;;;;;;4965876;28;20233;-82
2024/01/02 10:49:01;;;;;;;12.03;11.63;;;8.00;99.90;;;;;;4964546;28;20261;-82
2024/01/02 10:51:47;;;;;;;11.67;11.27;;;8.00;99.90;;;;;;4957846;28;20333;-83
2024/01/02 10:54:29;;;;;;;11.77;11.37;;;8.10;99.90;;;;;;4979186;28;20237;-86
2024/01/02 10:57:06;;;;;;;11.47;11.07;;;8.10;99.90;;;;;;4965967;28;20285;-82
2024/01/02 10:59:52;;;;;;;11.70;11.30;;;8.20;99.90;;;;;;4969093;28;20232;-82
2024/01/02 11:02:43;;;;;;;11.90;11.50;;;8.20;99.90;;;;;;4967673;28;20252;-82
2024/01/02 11:05:24;;;;;;;12.03;11.63;;;8.20;99.90;;;;;;4967546;28;20230;-83
2024/01/02 11:08:03;;;;;;;12.17;11.77;;;8.20;99.90;;;;;;4966355;28;20245;-83
2024/01/02 11:10:36;;;;;;;12.20;11.80;;;8.30;99.90;;;;;;4966113;28;20218;-83
2024/01/02 11:13:08;;;;;;;12.37;11.97;;;8.30;99.90;;;;;;4966340;28;20269;-82
2024/01/02 11:15:38;;;;;;;12.10;11.70;;;8.40;99.90;;;;;;4966394;28;20270;-82
2024/01/02 11:18:07;;;;;;;11.87;11.47;;;8.40;99.90;;;;;;4965518;28;20266;-82
2024/01/02 11:20:52;;;;;;;11.90;11.50;;;8.40;99.90;;;;;;4966990;28;20221;-83
2024/01/02 11:23:24;;;;;;;11.50;11.10;;;8.50;99.90;;;;;;4964233;28;20234;-82
2024/01/02 13:58:33;;;;;;;10.70;10.40;;;8.80;99.90;;;;;;5271920;23;20324;-84
2024/01/02 14:09:13;;;;;;;11.00;10.60;;;8.80;99.90;;;;;;5005351;28;20220;-84
2024/01/02 15:23:39;;;;;;;10.37;10.07;;;8.60;99.90;;;;;;4733461;29;20228;-86
2024/01/02 15:26:15;;;;;;;10.20;9.90;;;8.50;99.90;;;;;;4847580;29;20218;-86
2024/01/02 15:28:50;;;;;;;10.43;10.13;;;8.50;99.90;;;;;;4891258;29;20320;-86
2024/01/02 15:31:26;;;;;;;10.03;9.73;;;8.50;99.90;;;;;;4924677;29;20415;-87
2024/01/02 15:34:04;;;;;;;10.03;9.73;;;8.40;99.90;;;;;;4969512;28;20225;-83
2024/01/02 15:36:40;;;;;;;9.90;9.60;;;8.40;99.90;;;;;;4984597;28;20269;-84
2024/01/02 15:39:49;;;;;;;9.93;9.63;;;8.40;99.90;;;;;;4986806;28;20237;-86
2024/01/02 15:46:50;;;;;;;9.53;9.23;;;8.40;99.90;;;;;;4758139;30;20241;-85
2024/01/02 16:32:29;;;;;;;10.00;9.70;;;8.30;99.90;;;;;;4731643;30;20221;-83
2024/01/02 16:35:57;;;;;;;10.20;9.90;;;8.30;99.90;;;;;;4876280;29;20354;-83
2024/01/02 16:38:44;;;;;;;10.03;9.73;;;8.30;99.90;;;;;;4910574;29;20274;-82
2024/01/02 16:52:26;;;;;;;10.20;9.90;;;8.40;99.90;;;;;;4820034;29;20230;-81
2024/01/02 16:55:25;;;;;;;10.27;9.97;;;8.40;99.90;;;;;;4888129;29;20234;-82
2024/01/02 16:57:56;;;;;;;9.90;9.60;;;8.40;99.90;;;;;;4972582;28;20260;-81
2024/01/02 17:00:34;;;;;;;9.90;9.60;;;8.50;99.90;;;;;;4984481;28;20233;-83
2024/01/02 17:03:05;;;;;;;10.10;9.80;;;8.50;99.90;;;;;;4964840;28;20305;-80
2024/01/02 17:05:39;;;;;;;10.30;10.00;;;8.50;99.90;;;;;;4989675;28;20237;-81
2024/01/02 17:08:09;;;;;;;10.27;9.97;;;8.50;99.90;;;;;;4975478;28;20261;-81
2024/01/02 17:10:42;;;;;;;10.43;10.13;;;8.50;99.90;;;;;;4985316;28;20237;-83
2024/01/02 17:13:23;;;;;;;10.27;9.97;;;8.50;99.90;;;;;;4984467;28;20237;-83
2024/01/02 17:16:10;;;;;;;10.20;9.90;;;8.50;99.90;;;;;;4985221;28;20271;-83
2024/01/02 17:21:42;;;;;;;9.77;9.47;;;8.60;99.90;;;;;;4984093;28;20249;-81
2024/01/02 17:26:56;;;;;;;9.70;9.40;;;8.70;99.90;;;;;;4974653;28;20284;-82
2024/01/02 17:29:25;;;;;;;9.40;9.10;;;8.70;99.90;;;;;;4983753;28;20225;-83
2024/01/02 17:32:14;;;;;;;;;;;;;;;;;;;;;
2024/01/02 17:34:55;;;;;;;9.47;9.17;;;8.70;99.90;;;;;;4983801;28;20229;-82
2024/01/02 17:37:30;;;;;;;9.30;9.00;;;8.70;99.90;;;;;;4984122;28;20233;-83
2024/01/02 17:40:01;;;;;;;9.70;9.40;;;8.80;99.90;;;;;;4984867;28;20233;-82
2024/01/02 17:42:31;;;;;;;9.67;9.37;;;8.80;99.90;;;;;;4986689;28;20245;-80
2024/01/02 17:45:03;;;;;;;9.53;9.23;;;8.80;99.90;;;;;;5001179;28;20233;-80
2024/01/02 17:47:31;;;;;;;9.63;9.33;;;8.80;99.90;;;;;;5001093;28;20241;-81
2024/01/02 17:50:06;;;;;;;9.57;9.27;;;8.80;99.90;;;;;;4995744;28;20225;-82
2024/01/02 17:52:36;;;;;;;10.00;9.70;;;8.80;99.90;;;;;;5001040;28;20225;-80
2024/01/02 17:55:05;;;;;;;10.20;9.90;;;8.90;99.90;;;;;;5001124;28;20277;-82
2024/01/02 17:57:47;;;;;;;10.20;9.90;;;8.90;99.90;;;;;;5000768;28;20237;-82
2024/01/02 18:00:27;;;;;;;10.20;9.90;;;8.80;99.90;;;;;;5000613;28;20206;-82
2024/01/02 18:03:12;;;;;;;9.87;9.57;;;8.80;99.90;;;;;;5001172;28;20245;-82
2024/01/02 18:05:52;;;;;;;9.57;9.27;;;8.80;99.90;;;;;;5001995;28;20224;-81
2024/01/02 18:08:35;;;;;;;9.87;9.57;;;8.80;99.90;;;;;;5000640;28;20222;-82
2024/01/02 18:19:10;;;;;;;9.90;9.60;;;8.80;99.90;;;;;;5067785;23;20284;-83
2024/01/02 18:25:47;;;;;;;9.73;9.43;;;8.70;99.90;;;;;;5011171;28;20205;-82
2024/01/02 18:28:44;;;;;;;9.70;9.40;;;8.70;99.90;;;;;;5003672;28;20236;-82
2024/01/02 18:31:29;;;;;;;9.90;9.60;;;8.60;99.90;;;;;;5006136;28;20237;-82
2024/01/02 18:34:20;;;;;;;9.77;9.47;;;8.50;99.90;;;;;;5012451;28;20241;-81
2024/01/02 18:37:06;;;;;;;10.00;9.70;;;8.40;99.90;;;;;;5009838;28;20225;-82
2024/01/02 18:39:51;;;;;;;10.30;10.00;;;8.30;99.90;;;;;;5007940;28;20232;-84
2024/01/02 18:42:38;;;;;;;10.23;9.93;;;8.30;99.90;;;;;;5009280;28;20251;-82
2024/01/02 18:45:29;;;;;;;10.10;9.80;;;8.20;99.90;;;;;;5005965;28;20220;-82
2024/01/02 18:48:11;;;;;;;10.00;9.70;;;8.20;99.90;;;;;;5003757;28;20243;-82
2024/01/02 18:54:23;;;;;;;9.83;9.53;;;8.10;99.90;;;;;;4990856;28;20256;-80
2024/01/02 18:56:51;;;;;;;10.10;9.80;;;8.10;99.90;;;;;;5007111;28;20244;-82
2024/01/02 18:59:20;;;;;;;9.93;9.63;;;8.10;99.90;;;;;;5005717;28;20296;-81
2024/01/02 19:01:58;;;;;;;10.47;10.17;;;8.10;99.90;;;;;;5004552;28;20284;-85
2024/01/02 19:04:37;;;;;;;10.30;10.00;;;8.10;99.90;;;;;;5007325;28;20238;-81
2024/01/02 19:07:16;;;;;;;10.27;9.97;;;8.10;99.90;;;;;;5007198;28;20238;-83
2024/01/02 19:10:02;;;;;;;10.47;10.17;;;8.10;99.90;;;;;;5006961;28;20233;-82
2024/01/02 19:12:33;;;;;;;10.13;9.83;;;8.10;99.90;;;;;;5009074;28;20260;-82
2024/01/02 19:15:10;;;;;;;10.30;10.00;;;8.20;99.90;;;;;;5008264;28;21075;-82
2024/01/02 19:17:45;;;;;;;10.50;10.20;;;8.20;99.90;;;;;;5007105;28;20236;-82
2024/01/02 19:20:23;;;;;;;10.47;10.17;;;8.20;99.90;;;;;;5004707;28;20228;-83
2024/01/02 19:23:04;;;;;;;10.50;10.20;;;8.20;99.90;;;;;;5007421;28;20236;-82
2024/01/02 19:25:36;;;;;;;10.80;10.50;;;8.20;99.90;;;;;;5001834;28;20235;-81
2024/01/02 19:28:17;;;;;;;10.90;10.60;;;8.20;99.90;;;;;;5004544;28;20289;-82
2024/01/02 19:30:53;;;;;;;10.80;10.50;;;8.20;99.90;;;;;;5007083;28;20221;-81
2024/01/02 19:33:22;;;;;;;11.13;10.73;;;8.20;99.90;;;;;;5007185;28;20232;-83
2024/01/02 19:36:08;;;;;;;11.40;11.00;;;8.20;99.90;;;;;;5007487;28;20247;-83
2024/01/02 19:38:44;;;;;;;11.07;10.67;;;8.20;99.90;;;;;;5008233;28;20232;-83
2024/01/02 19:41:13;;;;;;;11.10;10.70;;;8.20;99.90;;;;;;5006655;28;20248;-83
2024/01/02 19:43:41;;;;;;;11.10;10.70;;;8.20;99.90;;;;;;4991604;28;20300;-83
2024/01/02 19:46:23;;;;;;;10.73;10.43;;;8.20;99.90;;;;;;5006924;28;20256;-83
2024/01/02 19:48:58;;;;;;;10.50;10.20;;;8.20;99.90;;;;;;5006484;28;20221;-83
2024/01/02 19:51:29;;;;;;;10.90;10.60;;;8.30;99.90;;;;;;5006591;28;20260;-83
2024/01/02 19:54:02;;;;;;;11.07;10.67;;;8.30;99.90;;;;;;5018416;28;20236;-83
2024/01/02 19:56:31;;;;;;;10.93;10.63;;;8.30;99.90;;;;;;4999970;28;20291;-83
2024/01/02 20:00:07;;;;;;;;;;;;;;;;;;;;;
2024/01/02 20:02:51;;;;;;;10.80;10.50;;;8.20;99.90;;;;;;4946599;29;20235;-85
2024/01/02 20:05:23;;;;;;;11.00;10.60;;;8.20;99.90;;;;;;4947451;29;20428;-82
2024/01/02 20:07:56;;;;;;;10.93;10.60;;;8.20;99.90;;;;;;4940010;29;20248;-82
2024/01/02 20:10:27;;;;;;;10.90;10.50;;;8.30;99.90;;;;;;4960513;28;20234;-82
2024/01/02 20:13:15;;;;;;;10.87;10.57;;;8.30;99.90;;;;;;4986945;28;20221;-81
2024/01/02 20:15:44;;;;;;;11.17;10.77;;;8.30;99.90;;;;;;4986806;28;20233;-81
2024/01/02 20:18:57;;;;;;;11.10;10.70;;;8.20;99.90;;;;;;4986160;28;20241;-82
2024/01/02 20:21:30;;;;;;;10.87;10.53;;;8.20;99.90;;;;;;4985732;28;20260;-82
2024/01/02 20:24:00;;;;;;;11.00;10.60;;;8.20;99.90;;;;;;4986608;28;20261;-82
2024/01/02 20:26:31;;;;;;;10.93;10.53;;;8.20;99.90;;;;;;4987036;28;20230;-85
2024/01/02 20:29:05;;;;;;;10.80;10.50;;;8.30;99.90;;;;;;4987352;28;20248;-81
2024/01/02 20:31:53;;;;;;;11.00;10.60;;;8.30;99.90;;;;;;4986877;28;20259;-82
2024/01/02 20:34:46;;;;;;;10.80;10.50;;;8.30;99.90;;;;;;4986664;28;20225;-82
2024/01/02 20:37:35;;;;;;;10.97;10.60;;;8.30;99.90;;;;;;4987455;28;20294;-82
2024/01/02 20:40:32;;;;;;;11.20;10.80;;;8.30;99.90;;;;;;4987041;28;20241;-82
2024/01/02 20:43:02;;;;;;;11.20;10.80;;;8.30;99.90;;;;;;4988177;28;20237;-82
2024/01/02 20:45:38;;;;;;;11.30;10.90;;;8.30;99.90;;;;;;4986324;28;20230;-81
2024/01/02 20:48:07;;;;;;;11.23;10.83;;;8.40;99.90;;;;;;4986482;28;20249;-82
2024/01/02 20:50:37;;;;;;;11.30;10.90;;;8.40;99.90;;;;;;4986713;28;20245;-81
2024/01/02 20:53:30;;;;;;;11.20;10.80;;;8.40;99.90;;;;;;4986780;28;20232;-82
2024/01/02 20:55:58;;;;;;;11.07;10.67;;;8.40;99.90;;;;;;4986947;28;20229;-82
2024/01/02 20:59:10;;;;;;;11.20;10.80;;;8.50;99.90;;;;;;4986353;28;20252;-82
2024/01/02 21:01:56;;;;;;;11.10;10.70;;;8.50;99.90;;;;;;4987972;28;20329;-81
2024/01/02 21:04:37;;;;;;;11.07;10.67;;;8.50;99.90;;;;;;4985948;28;20244;-82
2024/01/02 21:07:18;;;;;;;10.80;10.50;;;8.60;99.90;;;;;;4986296;28;20316;-82
2024/01/02 21:09:59;;;;;;;11.10;10.70;;;8.60;99.90;;;;;;4985938;28;20313;-83
2024/01/02 21:12:33;;;;;;;10.93;10.57;;;8.60;99.90;;;;;;4985692;28;20229;-82
2024/01/02 21:15:46;;;;;;;10.80;10.50;;;8.60;99.90;;;;;;4986208;28;20262;-81
2024/01/02 21:18:54;;;;;;;10.60;10.30;;;8.70;99.90;;;;;;4985650;28;20248;-82
2024/01/02 21:21:38;;;;;;;10.53;10.23;;;8.70;99.90;;;;;;4997049;28;20244;-82
2024/01/02 21:24:26;;;;;;;10.57;10.27;;;8.80;99.90;;;;;;4996047;28;20236;-80
2024/01/02 21:27:10;;;;;;;10.63;10.33;;;8.90;99.90;;;;;;5004459;28;20291;-81
2024/01/02 21:29:42;;;;;;;10.80;10.50;;;8.90;99.90;;;;;;5005250;28;20229;-81
2024/01/02 21:32:36;;;;;;;10.60;10.30;;;9.00;99.90;;;;;;5004961;28;20233;-80
2024/01/02 21:35:04;;;;;;;10.47;10.17;;;9.10;99.90;;;;;;5006397;28;20233;-80
2024/01/02 21:37:36;;;;;;;10.73;10.43;;;9.10;99.90;;;;;;5005225;28;20295;-81
2024/01/02 21:40:46;;;;;;;10.90;10.50;;;9.20;99.90;;;;;;5005897;28;20252;-81
2024/01/02 21:43:29;;;;;;;10.80;10.50;;;9.20;99.90;;;;;;5007966;28;20226;-81
2024/01/02 21:46:26;;;;;;;10.93;10.60;;;9.30;99.90;;;;;;5016106;28;20232;-83
2024/01/02 21:49:01;;;;;;;11.27;10.87;;;9.30;99.90;;;;;;5001721;28;20225;-82
2024/01/02 21:51:34;;;;;;;11.37;10.97;;;9.30;99.90;;;;;;5012876;28;20229;-81
2024/01/02 21:54:11;;;;;;;11.30;10.90;;;9.40;99.90;;;;;;5005888;28;20276;-81
2024/01/02 21:56:45;;;;;;;11.13;10.73;;;9.50;99.90;;;;;;5005733;28;20263;-83
2024/01/02 21:59:33;;;;;;;11.43;11.03;;;9.50;99.90;;;;;;5005853;28;20236;-83
2024/01/02 22:02:01;;;;;;;11.50;11.10;;;9.50;99.90;;;;;;5005042;28;20260;-82
2024/01/02 22:04:36;;;;;;;11.63;11.23;;;9.50;99.90;;;;;;5006190;28;20471;-84
2024/01/02 22:08:12;;;;;;;;;;;;;;;;;;;;;
2024/01/02 22:10:48;;;;;;;11.50;11.10;;;9.50;99.90;;;;;;4991480;28;20227;-83
2024/01/02 22:13:51;;;;;;;11.80;11.40;;;9.50;99.90;;;;;;4994905;28;20252;-84
2024/01/02 22:16:22;;;;;;;11.53;11.13;;;9.60;99.90;;;;;;4989320;28;20236;-82
2024/01/02 22:29:50;;;;;;;11.50;11.10;;;9.60;99.90;;;;;;4945014;29;20234;-82
2024/01/02 22:32:23;;;;;;;11.43;11.03;;;9.60;99.90;;;;;;4978296;28;20234;-82
2024/01/02 22:34:52;;;;;;;11.50;11.10;;;9.60;99.90;;;;;;4986179;28;20238;-83
2024/01/02 22:37:22;;;;;;;11.60;11.20;;;9.60;99.90;;;;;;4983947;28;20226;-81
2024/01/02 22:39:52;;;;;;;11.50;11.10;;;9.70;99.90;;;;;;4985394;28;20305;-82
2024/01/02 22:42:31;;;;;;;11.70;11.30;;;9.70;99.90;;;;;;4985988;28;20304;-82
2024/01/02 22:45:09;;;;;;;11.30;10.90;;;9.70;99.90;;;;;;4986533;28;20240;-81
2024/01/02 22:47:46;;;;;;;11.30;10.90;;;9.70;99.90;;;;;;4995254;28;20213;-81
2024/01/02 22:50:16;;;;;;;11.30;10.90;;;9.70;99.90;;;;;;4985796;28;20236;-81
2024/01/02 22:55:44;;;;;;;11.60;11.20;;;9.70;99.90;;;;;;4988033;28;20240;-91
2024/01/02 22:59:12;;;;;;;;;;;;;;;;;;;;;
